sensor_id;sensor_type;location;lat;lon;timestamp;P1;durP1;ratioP1;P2;durP2;ratioP2
10880;SDS011;5493;48.884;8.338;2023-04-01T00:01:35;4.07;;;0.53;;
10880;SDS011;5493;48.884;8.338;2023-04-01T00:04:01;0.57;;;0.30;;
10880;SDS011;5493;48.884;8.338;2023-04-01T00:06:28;4.17;;;0.60;;
10880;SDS011;5493;48.884;8.338;2023-04-01T00:08:54;2.87;;;0.70;;
10880;SDS011;5493;48.884;8.338;2023-04-01T00:11:21;2.43;;;0.77;;
10880;SDS011;5493;48.884;8.338;2023-04-01T00:13:48;0.30;;;0.30;;
10880;SDS011;5493;48.884;8.338;2023-04-01T00:16:15;3.70;;;0.77;;
10880;SDS011;5493;48.884;8.338;2023-04-01T00:18:43;1.17;;;0.77;;
10880;SDS011;5493;48.884;8.338;2023-04-01T00:21:12;2.57;;;0.53;;
10880;SDS011;5493;48.884;8.338;2023-04-01T00:23:38;1.83;;;0.40;;
10880;SDS011;5493;48.884;8.338;2023-04-01T00:26:05;0.63;;;0.37;;
10880;SDS011;5493;48.884;8.338;2023-04-01T00:28:31;2.37;;;0.80;;
10880;SDS011;5493;48.884;8.338;2023-04-01T00:31:03;1.13;;;0.40;;
10880;SDS011;5493;48.884;8.338;2023-04-01T00:33:31;2.80;;;0.60;;
10880;SDS011;5493;48.884;8.338;2023-04-01T00:36:06;1.00;;;0.50;;
10880;SDS011;5493;48.884;8.338;2023-04-01T00:38:33;0.80;;;0.37;;
10880;SDS011;5493;48.884;8.338;2023-04-01T00:41:01;0.87;;;0.30;;
10880;SDS011;5493;48.884;8.338;2023-04-01T00:43:27;1.83;;;0.30;;
10880;SDS011;5493;48.884;8.338;2023-04-01T00:45:54;0.63;;;0.40;;
10880;SDS011;5493;48.884;8.338;2023-04-01T00:48:21;2.27;;;0.70;;
10880;SDS011;5493;48.884;8.338;2023-04-01T00:50:52;0.77;;;0.30;;
10880;SDS011;5493;48.884;8.338;2023-04-01T00:53:23;1.80;;;0.40;;
10880;SDS011;5493;48.884;8.338;2023-04-01T00:55:51;2.40;;;0.47;;
10880;SDS011;5493;48.884;8.338;2023-04-01T00:58:23;3.33;;;0.53;;
10880;SDS011;5493;48.884;8.338;2023-04-01T01:00:53;0.60;;;0.30;;
10880;SDS011;5493;48.884;8.338;2023-04-01T01:03:21;1.53;;;0.70;;
10880;SDS011;5493;48.884;8.338;2023-04-01T01:05:55;2.10;;;0.60;;
10880;SDS011;5493;48.884;8.338;2023-04-01T01:08:38;0.40;;;0.30;;
10880;SDS011;5493;48.884;8.338;2023-04-01T01:11:22;1.23;;;0.30;;
10880;SDS011;5493;48.884;8.338;2023-04-01T01:13:56;1.47;;;0.63;;
10880;SDS011;5493;48.884;8.338;2023-04-01T01:16:28;0.87;;;0.43;;
10880;SDS011;5493;48.884;8.338;2023-04-01T01:18:59;0.40;;;0.20;;
10880;SDS011;5493;48.884;8.338;2023-04-01T01:24:36;2.30;;;0.87;;
10880;SDS011;5493;48.884;8.338;2023-04-01T01:27:19;1.43;;;0.63;;
10880;SDS011;5493;48.884;8.338;2023-04-01T01:30:02;0.77;;;0.40;;
10880;SDS011;5493;48.884;8.338;2023-04-01T01:32:49;0.73;;;0.30;;
10880;SDS011;5493;48.884;8.338;2023-04-01T01:35:27;2.43;;;1.33;;
10880;SDS011;5493;48.884;8.338;2023-04-01T01:37:59;0.67;;;0.33;;
10880;SDS011;5493;48.884;8.338;2023-04-01T01:40:29;0.87;;;0.40;;
10880;SDS011;5493;48.884;8.338;2023-04-01T01:42:59;0.53;;;0.30;;
10880;SDS011;5493;48.884;8.338;2023-04-01T01:45:30;0.87;;;0.50;;
10880;SDS011;5493;48.884;8.338;2023-04-01T01:47:59;0.57;;;0.10;;
10880;SDS011;5493;48.884;8.338;2023-04-01T01:50:29;0.33;;;0.10;;
10880;SDS011;5493;48.884;8.338;2023-04-01T01:53:00;1.73;;;0.40;;
10880;SDS011;5493;48.884;8.338;2023-04-01T01:55:29;0.30;;;0.30;;
10880;SDS011;5493;48.884;8.338;2023-04-01T01:57:57;1.33;;;0.47;;
10880;SDS011;5493;48.884;8.338;2023-04-01T02:00:27;0.10;;;0.10;;
10880;SDS011;5493;48.884;8.338;2023-04-01T02:02:54;0.10;;;0.10;;
10880;SDS011;5493;48.884;8.338;2023-04-01T02:05:24;0.13;;;0.10;;
10880;SDS011;5493;48.884;8.338;2023-04-01T02:07:57;0.67;;;0.33;;
10880;SDS011;5493;48.884;8.338;2023-04-01T02:10:28;1.20;;;0.10;;
10880;SDS011;5493;48.884;8.338;2023-04-01T02:13:00;0.20;;;0.20;;
10880;SDS011;5493;48.884;8.338;2023-04-01T02:15:32;0.83;;;0.17;;
10880;SDS011;5493;48.884;8.338;2023-04-01T02:18:03;0.10;;;0.00;;
10880;SDS011;5493;48.884;8.338;2023-04-01T02:20:31;0.03;;;0.00;;
10880;SDS011;5493;48.884;8.338;2023-04-01T02:23:00;0.77;;;0.30;;
10880;SDS011;5493;48.884;8.338;2023-04-01T02:25:28;0.50;;;0.20;;
10880;SDS011;5493;48.884;8.338;2023-04-01T02:27:59;0.80;;;0.30;;
10880;SDS011;5493;48.884;8.338;2023-04-01T02:30:27;0.70;;;0.20;;
10880;SDS011;5493;48.884;8.338;2023-04-01T02:32:55;1.10;;;0.37;;
10880;SDS011;5493;48.884;8.338;2023-04-01T02:35:23;0.97;;;0.20;;
10880;SDS011;5493;48.884;8.338;2023-04-01T02:37:51;0.30;;;0.20;;
10880;SDS011;5493;48.884;8.338;2023-04-01T02:40:21;1.00;;;0.50;;
10880;SDS011;5493;48.884;8.338;2023-04-01T02:42:48;0.37;;;0.20;;
10880;SDS011;5493;48.884;8.338;2023-04-01T02:45:14;0.70;;;0.37;;
10880;SDS011;5493;48.884;8.338;2023-04-01T02:47:41;0.57;;;0.33;;
10880;SDS011;5493;48.884;8.338;2023-04-01T02:50:07;3.10;;;0.33;;
10880;SDS011;5493;48.884;8.338;2023-04-01T02:52:35;2.00;;;0.50;;
10880;SDS011;5493;48.884;8.338;2023-04-01T02:55:01;3.00;;;0.30;;
10880;SDS011;5493;48.884;8.338;2023-04-01T02:57:29;0.63;;;0.20;;
10880;SDS011;5493;48.884;8.338;2023-04-01T02:59:56;0.20;;;0.10;;
10880;SDS011;5493;48.884;8.338;2023-04-01T03:02:22;0.50;;;0.20;;
10880;SDS011;5493;48.884;8.338;2023-04-01T03:04:49;0.10;;;0.10;;
10880;SDS011;5493;48.884;8.338;2023-04-01T03:07:15;0.20;;;0.17;;
10880;SDS011;5493;48.884;8.338;2023-04-01T03:09:42;1.53;;;0.40;;
10880;SDS011;5493;48.884;8.338;2023-04-01T03:12:08;0.83;;;0.33;;
10880;SDS011;5493;48.884;8.338;2023-04-01T03:14:36;1.43;;;0.43;;
10880;SDS011;5493;48.884;8.338;2023-04-01T03:17:03;0.77;;;0.20;;
10880;SDS011;5493;48.884;8.338;2023-04-01T03:19:30;0.10;;;0.10;;
10880;SDS011;5493;48.884;8.338;2023-04-01T03:21:56;1.57;;;0.40;;
10880;SDS011;5493;48.884;8.338;2023-04-01T03:24:23;1.40;;;0.30;;
10880;SDS011;5493;48.884;8.338;2023-04-01T03:26:50;0.43;;;0.10;;
10880;SDS011;5493;48.884;8.338;2023-04-01T03:29:16;1.60;;;0.40;;
10880;SDS011;5493;48.884;8.338;2023-04-01T03:31:44;1.70;;;0.30;;
10880;SDS011;5493;48.884;8.338;2023-04-01T03:34:10;0.63;;;0.20;;
10880;SDS011;5493;48.884;8.338;2023-04-01T03:36:37;1.93;;;0.57;;
10880;SDS011;5493;48.884;8.338;2023-04-01T03:39:03;1.07;;;0.33;;
10880;SDS011;5493;48.884;8.338;2023-04-01T03:41:32;1.80;;;0.33;;
10880;SDS011;5493;48.884;8.338;2023-04-01T03:43:58;1.97;;;0.40;;
10880;SDS011;5493;48.884;8.338;2023-04-01T03:46:25;2.83;;;0.43;;
10880;SDS011;5493;48.884;8.338;2023-04-01T03:48:53;0.53;;;0.30;;
10880;SDS011;5493;48.884;8.338;2023-04-01T03:51:19;1.77;;;0.47;;
10880;SDS011;5493;48.884;8.338;2023-04-01T03:53:46;2.47;;;0.27;;
10880;SDS011;5493;48.884;8.338;2023-04-01T03:56:12;7.77;;;0.97;;
10880;SDS011;5493;48.884;8.338;2023-04-01T03:58:39;2.07;;;0.50;;
10880;SDS011;5493;48.884;8.338;2023-04-01T04:01:12;2.83;;;0.60;;
10880;SDS011;5493;48.884;8.338;2023-04-01T04:03:40;0.87;;;0.40;;
10880;SDS011;5493;48.884;8.338;2023-04-01T04:06:11;0.93;;;0.43;;
10880;SDS011;5493;48.884;8.338;2023-04-01T04:08:38;1.40;;;0.67;;
10880;SDS011;5493;48.884;8.338;2023-04-01T04:11:04;2.67;;;0.63;;
10880;SDS011;5493;48.884;8.338;2023-04-01T04:13:31;4.97;;;0.87;;
10880;SDS011;5493;48.884;8.338;2023-04-01T04:15:57;2.07;;;0.60;;
10880;SDS011;5493;48.884;8.338;2023-04-01T04:18:24;2.43;;;0.63;;
10880;SDS011;5493;48.884;8.338;2023-04-01T04:20:51;1.90;;;0.63;;
10880;SDS011;5493;48.884;8.338;2023-04-01T04:23:19;3.07;;;1.00;;
10880;SDS011;5493;48.884;8.338;2023-04-01T04:25:52;0.43;;;0.30;;
10880;SDS011;5493;48.884;8.338;2023-04-01T04:28:19;2.73;;;0.70;;
10880;SDS011;5493;48.884;8.338;2023-04-01T04:30:46;1.03;;;0.30;;
10880;SDS011;5493;48.884;8.338;2023-04-01T04:33:13;1.20;;;0.60;;
10880;SDS011;5493;48.884;8.338;2023-04-01T04:35:39;2.67;;;0.77;;
10880;SDS011;5493;48.884;8.338;2023-04-01T04:38:06;1.10;;;0.40;;
10880;SDS011;5493;48.884;8.338;2023-04-01T04:40:33;1.57;;;0.60;;
10880;SDS011;5493;48.884;8.338;2023-04-01T04:43:02;1.70;;;0.63;;
10880;SDS011;5493;48.884;8.338;2023-04-01T04:45:28;1.43;;;0.40;;
10880;SDS011;5493;48.884;8.338;2023-04-01T04:47:55;0.60;;;0.50;;
10880;SDS011;5493;48.884;8.338;2023-04-01T04:50:22;1.70;;;0.50;;
10880;SDS011;5493;48.884;8.338;2023-04-01T04:52:49;0.40;;;0.20;;
10880;SDS011;5493;48.884;8.338;2023-04-01T04:55:16;0.53;;;0.30;;
10880;SDS011;5493;48.884;8.338;2023-04-01T04:57:44;1.00;;;0.40;;
10880;SDS011;5493;48.884;8.338;2023-04-01T05:00:10;0.77;;;0.60;;
10880;SDS011;5493;48.884;8.338;2023-04-01T05:02:37;1.03;;;0.40;;
10880;SDS011;5493;48.884;8.338;2023-04-01T05:05:04;0.57;;;0.37;;
10880;SDS011;5493;48.884;8.338;2023-04-01T05:07:32;0.50;;;0.30;;
10880;SDS011;5493;48.884;8.338;2023-04-01T05:09:59;1.50;;;0.73;;
10880;SDS011;5493;48.884;8.338;2023-04-01T05:12:26;1.30;;;0.43;;
10880;SDS011;5493;48.884;8.338;2023-04-01T05:14:53;1.60;;;0.43;;
10880;SDS011;5493;48.884;8.338;2023-04-01T05:17:20;0.33;;;0.30;;
10880;SDS011;5493;48.884;8.338;2023-04-01T05:19:46;0.50;;;0.40;;
10880;SDS011;5493;48.884;8.338;2023-04-01T05:22:13;0.40;;;0.10;;
10880;SDS011;5493;48.884;8.338;2023-04-01T05:24:39;1.93;;;0.50;;
10880;SDS011;5493;48.884;8.338;2023-04-01T05:27:06;1.10;;;0.20;;
10880;SDS011;5493;48.884;8.338;2023-04-01T05:29:32;1.57;;;0.60;;
10880;SDS011;5493;48.884;8.338;2023-04-01T05:32:01;0.50;;;0.37;;
10880;SDS011;5493;48.884;8.338;2023-04-01T05:34:27;0.77;;;0.23;;
10880;SDS011;5493;48.884;8.338;2023-04-01T05:36:54;1.77;;;0.50;;
10880;SDS011;5493;48.884;8.338;2023-04-01T05:39:20;0.80;;;0.30;;
10880;SDS011;5493;48.884;8.338;2023-04-01T05:41:48;0.63;;;0.27;;
10880;SDS011;5493;48.884;8.338;2023-04-01T05:44:15;1.57;;;0.33;;
10880;SDS011;5493;48.884;8.338;2023-04-01T05:46:41;0.37;;;0.20;;
10880;SDS011;5493;48.884;8.338;2023-04-01T05:49:09;0.00;;;0.00;;
10880;SDS011;5493;48.884;8.338;2023-04-01T05:51:36;1.07;;;0.60;;
10880;SDS011;5493;48.884;8.338;2023-04-01T05:54:03;0.93;;;0.43;;
10880;SDS011;5493;48.884;8.338;2023-04-01T05:56:30;0.90;;;0.50;;
10880;SDS011;5493;48.884;8.338;2023-04-01T05:58:57;0.53;;;0.20;;
10880;SDS011;5493;48.884;8.338;2023-04-01T06:01:23;0.97;;;0.47;;
10880;SDS011;5493;48.884;8.338;2023-04-01T06:03:50;1.90;;;0.30;;
10880;SDS011;5493;48.884;8.338;2023-04-01T06:06:20;2.40;;;0.40;;
10880;SDS011;5493;48.884;8.338;2023-04-01T06:08:50;0.30;;;0.30;;
10880;SDS011;5493;48.884;8.338;2023-04-01T06:11:19;0.73;;;0.50;;
10880;SDS011;5493;48.884;8.338;2023-04-01T06:13:58;1.43;;;0.50;;
10880;SDS011;5493;48.884;8.338;2023-04-01T06:16:38;2.13;;;0.60;;
10880;SDS011;5493;48.884;8.338;2023-04-01T06:19:15;0.57;;;0.40;;
10880;SDS011;5493;48.884;8.338;2023-04-01T06:22:03;2.90;;;0.60;;
10880;SDS011;5493;48.884;8.338;2023-04-01T06:24:43;1.80;;;0.60;;
10880;SDS011;5493;48.884;8.338;2023-04-01T06:27:20;0.37;;;0.30;;
10880;SDS011;5493;48.884;8.338;2023-04-01T06:30:02;2.23;;;0.70;;
10880;SDS011;5493;48.884;8.338;2023-04-01T06:32:46;0.60;;;0.47;;
10880;SDS011;5493;48.884;8.338;2023-04-01T06:35:28;0.93;;;0.70;;
10880;SDS011;5493;48.884;8.338;2023-04-01T06:38:17;0.90;;;0.60;;
10880;SDS011;5493;48.884;8.338;2023-04-01T06:41:03;0.97;;;0.63;;
10880;SDS011;5493;48.884;8.338;2023-04-01T06:43:45;2.27;;;1.13;;
10880;SDS011;5493;48.884;8.338;2023-04-01T06:46:19;1.13;;;0.60;;
10880;SDS011;5493;48.884;8.338;2023-04-01T06:49:02;2.30;;;0.40;;
10880;SDS011;5493;48.884;8.338;2023-04-01T06:51:39;1.10;;;0.50;;
10880;SDS011;5493;48.884;8.338;2023-04-01T06:54:13;1.53;;;0.40;;
10880;SDS011;5493;48.884;8.338;2023-04-01T06:56:44;1.23;;;0.40;;
10880;SDS011;5493;48.884;8.338;2023-04-01T06:59:15;1.87;;;0.70;;
10880;SDS011;5493;48.884;8.338;2023-04-01T07:01:45;2.80;;;0.83;;
10880;SDS011;5493;48.884;8.338;2023-04-01T07:04:16;3.20;;;0.77;;
10880;SDS011;5493;48.884;8.338;2023-04-01T07:06:47;3.05;;;0.80;;
10880;SDS011;5493;48.884;8.338;2023-04-01T07:09:22;0.63;;;0.50;;
10880;SDS011;5493;48.884;8.338;2023-04-01T07:11:52;0.97;;;0.43;;
10880;SDS011;5493;48.884;8.338;2023-04-01T07:14:24;2.50;;;0.77;;
10880;SDS011;5493;48.884;8.338;2023-04-01T07:16:56;0.80;;;0.57;;
10880;SDS011;5493;48.884;8.338;2023-04-01T07:19:29;0.97;;;0.60;;
10880;SDS011;5493;48.884;8.338;2023-04-01T07:22:03;1.27;;;0.60;;
10880;SDS011;5493;48.884;8.338;2023-04-01T07:24:34;0.57;;;0.40;;
10880;SDS011;5493;48.884;8.338;2023-04-01T07:27:05;3.30;;;0.80;;
10880;SDS011;5493;48.884;8.338;2023-04-01T07:29:34;1.17;;;0.40;;
10880;SDS011;5493;48.884;8.338;2023-04-01T07:34:49;1.63;;;0.70;;
10880;SDS011;5493;48.884;8.338;2023-04-01T07:37:22;2.23;;;0.73;;
10880;SDS011;5493;48.884;8.338;2023-04-01T07:40:00;2.00;;;0.60;;
10880;SDS011;5493;48.884;8.338;2023-04-01T07:42:39;1.27;;;0.60;;
10880;SDS011;5493;48.884;8.338;2023-04-01T07:45:17;1.60;;;0.70;;
10880;SDS011;5493;48.884;8.338;2023-04-01T07:47:54;3.17;;;0.80;;
10880;SDS011;5493;48.884;8.338;2023-04-01T07:50:32;3.73;;;0.60;;
10880;SDS011;5493;48.884;8.338;2023-04-01T07:53:06;2.73;;;0.50;;
10880;SDS011;5493;48.884;8.338;2023-04-01T07:55:42;2.30;;;0.50;;
10880;SDS011;5493;48.884;8.338;2023-04-01T07:58:17;0.23;;;0.17;;
10880;SDS011;5493;48.884;8.338;2023-04-01T08:00:54;2.07;;;0.40;;
10880;SDS011;5493;48.884;8.338;2023-04-01T08:03:33;0.40;;;0.37;;
10880;SDS011;5493;48.884;8.338;2023-04-01T08:06:10;0.60;;;0.43;;
10880;SDS011;5493;48.884;8.338;2023-04-01T08:08:49;0.73;;;0.57;;
10880;SDS011;5493;48.884;8.338;2023-04-01T08:11:29;0.57;;;0.50;;
10880;SDS011;5493;48.884;8.338;2023-04-01T08:14:08;0.50;;;0.30;;
10880;SDS011;5493;48.884;8.338;2023-04-01T08:16:43;0.73;;;0.60;;
10880;SDS011;5493;48.884;8.338;2023-04-01T08:19:17;2.60;;;0.50;;
10880;SDS011;5493;48.884;8.338;2023-04-01T08:21:54;0.70;;;0.20;;
10880;SDS011;5493;48.884;8.338;2023-04-01T08:24:25;0.57;;;0.43;;
10880;SDS011;5493;48.884;8.338;2023-04-01T08:27:00;2.47;;;0.97;;
10880;SDS011;5493;48.884;8.338;2023-04-01T08:29:33;0.83;;;0.43;;
10880;SDS011;5493;48.884;8.338;2023-04-01T08:32:05;1.47;;;0.90;;
10880;SDS011;5493;48.884;8.338;2023-04-01T08:34:37;4.40;;;2.30;;
10880;SDS011;5493;48.884;8.338;2023-04-01T08:37:07;4.63;;;1.40;;
10880;SDS011;5493;48.884;8.338;2023-04-01T08:39:39;2.57;;;1.17;;
10880;SDS011;5493;48.884;8.338;2023-04-01T08:42:25;3.47;;;0.97;;
10880;SDS011;5493;48.884;8.338;2023-04-01T08:45:15;0.73;;;0.40;;
10880;SDS011;5493;48.884;8.338;2023-04-01T08:47:54;2.20;;;0.90;;
10880;SDS011;5493;48.884;8.338;2023-04-01T08:50:47;1.67;;;0.70;;
10880;SDS011;5493;48.884;8.338;2023-04-01T08:53:41;3.30;;;1.40;;
10880;SDS011;5493;48.884;8.338;2023-04-01T08:56:41;1.17;;;0.70;;
10880;SDS011;5493;48.884;8.338;2023-04-01T08:59:21;2.27;;;0.90;;
10880;SDS011;5493;48.884;8.338;2023-04-01T09:02:04;1.47;;;0.47;;
10880;SDS011;5493;48.884;8.338;2023-04-01T09:05:12;0.93;;;0.73;;
10880;SDS011;5493;48.884;8.338;2023-04-01T09:07:54;0.43;;;0.33;;
10880;SDS011;5493;48.884;8.338;2023-04-01T09:13:29;1.00;;;0.57;;
10880;SDS011;5493;48.884;8.338;2023-04-01T09:16:18;0.97;;;0.50;;
10880;SDS011;5493;48.884;8.338;2023-04-01T09:18:59;1.30;;;0.77;;
10880;SDS011;5493;48.884;8.338;2023-04-01T09:21:51;2.23;;;0.47;;
10880;SDS011;5493;48.884;8.338;2023-04-01T09:24:42;1.30;;;0.47;;
10880;SDS011;5493;48.884;8.338;2023-04-01T09:27:32;0.30;;;0.20;;
10880;SDS011;5493;48.884;8.338;2023-04-01T09:30:20;0.57;;;0.37;;
10880;SDS011;5493;48.884;8.338;2023-04-01T09:33:20;0.93;;;0.63;;
10880;SDS011;5493;48.884;8.338;2023-04-01T09:36:12;0.73;;;0.37;;
10880;SDS011;5493;48.884;8.338;2023-04-01T09:38:55;0.73;;;0.40;;
10880;SDS011;5493;48.884;8.338;2023-04-01T09:41:30;0.53;;;0.37;;
10880;SDS011;5493;48.884;8.338;2023-04-01T09:44:00;0.63;;;0.30;;
10880;SDS011;5493;48.884;8.338;2023-04-01T09:46:36;0.63;;;0.37;;
10880;SDS011;5493;48.884;8.338;2023-04-01T09:49:36;0.87;;;0.40;;
10880;SDS011;5493;48.884;8.338;2023-04-01T09:52:14;1.80;;;0.70;;
10880;SDS011;5493;48.884;8.338;2023-04-01T09:58:18;0.30;;;0.30;;
10880;SDS011;5493;48.884;8.338;2023-04-01T10:01:16;1.27;;;0.30;;
10880;SDS011;5493;48.884;8.338;2023-04-01T10:10:19;0.53;;;0.40;;
10880;SDS011;5493;48.884;8.338;2023-04-01T10:13:11;0.33;;;0.33;;
10880;SDS011;5493;48.884;8.338;2023-04-01T10:16:00;0.77;;;0.23;;
10880;SDS011;5493;48.884;8.338;2023-04-01T10:19:02;0.30;;;0.30;;
10880;SDS011;5493;48.884;8.338;2023-04-01T10:30:59;0.40;;;0.33;;
10880;SDS011;5493;48.884;8.338;2023-04-01T10:36:50;0.53;;;0.20;;
10880;SDS011;5493;48.884;8.338;2023-04-01T10:39:34;0.23;;;0.23;;
10880;SDS011;5493;48.884;8.338;2023-04-01T10:48:17;0.80;;;0.33;;
10880;SDS011;5493;48.884;8.338;2023-04-01T10:54:16;1.40;;;0.50;;
10880;SDS011;5493;48.884;8.338;2023-04-01T10:56:49;0.80;;;0.40;;
10880;SDS011;5493;48.884;8.338;2023-04-01T10:59:42;0.73;;;0.60;;
10880;SDS011;5493;48.884;8.338;2023-04-01T11:02:55;1.70;;;0.30;;
10880;SDS011;5493;48.884;8.338;2023-04-01T11:06:04;0.70;;;0.40;;
10880;SDS011;5493;48.884;8.338;2023-04-01T11:12:00;0.50;;;0.20;;
10880;SDS011;5493;48.884;8.338;2023-04-01T11:15:05;1.30;;;0.23;;
10880;SDS011;5493;48.884;8.338;2023-04-01T11:17:59;0.93;;;0.60;;
10880;SDS011;5493;48.884;8.338;2023-04-01T11:20:56;1.23;;;0.60;;
10880;SDS011;5493;48.884;8.338;2023-04-01T11:23:44;0.67;;;0.40;;
10880;SDS011;5493;48.884;8.338;2023-04-01T11:26:20;0.20;;;0.20;;
10880;SDS011;5493;48.884;8.338;2023-04-01T11:29:09;0.70;;;0.37;;
10880;SDS011;5493;48.884;8.338;2023-04-01T11:31:53;0.50;;;0.50;;
10880;SDS011;5493;48.884;8.338;2023-04-01T11:34:31;0.50;;;0.23;;
10880;SDS011;5493;48.884;8.338;2023-04-01T11:37:18;1.70;;;0.40;;
10880;SDS011;5493;48.884;8.338;2023-04-01T11:39:57;2.33;;;0.37;;
10880;SDS011;5493;48.884;8.338;2023-04-01T11:42:33;0.77;;;0.47;;
10880;SDS011;5493;48.884;8.338;2023-04-01T11:45:10;0.80;;;0.57;;
10880;SDS011;5493;48.884;8.338;2023-04-01T11:47:49;0.50;;;0.50;;
10880;SDS011;5493;48.884;8.338;2023-04-01T11:50:28;0.13;;;0.13;;
10880;SDS011;5493;48.884;8.338;2023-04-01T11:56:05;0.80;;;0.47;;
10880;SDS011;5493;48.884;8.338;2023-04-01T11:58:52;0.97;;;0.80;;
10880;SDS011;5493;48.884;8.338;2023-04-01T12:01:33;0.80;;;0.57;;
10880;SDS011;5493;48.884;8.338;2023-04-01T12:04:27;2.00;;;1.07;;
10880;SDS011;5493;48.884;8.338;2023-04-01T12:07:17;0.77;;;0.70;;
10880;SDS011;5493;48.884;8.338;2023-04-01T12:09:52;1.57;;;1.00;;
10880;SDS011;5493;48.884;8.338;2023-04-01T12:12:30;1.37;;;0.97;;
10880;SDS011;5493;48.884;8.338;2023-04-01T12:15:11;0.47;;;0.43;;
10880;SDS011;5493;48.884;8.338;2023-04-01T12:17:46;0.73;;;0.50;;
10880;SDS011;5493;48.884;8.338;2023-04-01T12:20:28;2.00;;;0.63;;
10880;SDS011;5493;48.884;8.338;2023-04-01T12:23:09;1.10;;;0.80;;
10880;SDS011;5493;48.884;8.338;2023-04-01T12:25:51;0.77;;;0.60;;
10880;SDS011;5493;48.884;8.338;2023-04-01T12:28:33;1.10;;;0.70;;
10880;SDS011;5493;48.884;8.338;2023-04-01T12:34:10;0.60;;;0.50;;
10880;SDS011;5493;48.884;8.338;2023-04-01T12:36:55;1.07;;;0.90;;
10880;SDS011;5493;48.884;8.338;2023-04-01T12:39:37;0.87;;;0.67;;
10880;SDS011;5493;48.884;8.338;2023-04-01T12:42:21;0.67;;;0.40;;
10880;SDS011;5493;48.884;8.338;2023-04-01T12:45:04;1.30;;;0.50;;
10880;SDS011;5493;48.884;8.338;2023-04-01T12:50:51;0.93;;;0.80;;
10880;SDS011;5493;48.884;8.338;2023-04-01T12:57:00;1.53;;;0.60;;
10880;SDS011;5493;48.884;8.338;2023-04-01T12:59:49;1.87;;;1.67;;
10880;SDS011;5493;48.884;8.338;2023-04-01T13:02:31;1.37;;;0.80;;
10880;SDS011;5493;48.884;8.338;2023-04-01T13:05:19;1.13;;;0.80;;
10880;SDS011;5493;48.884;8.338;2023-04-01T13:08:02;1.73;;;0.90;;
10880;SDS011;5493;48.884;8.338;2023-04-01T13:10:44;0.60;;;0.40;;
10880;SDS011;5493;48.884;8.338;2023-04-01T13:13:37;0.40;;;0.40;;
10880;SDS011;5493;48.884;8.338;2023-04-01T13:16:21;0.70;;;0.50;;
10880;SDS011;5493;48.884;8.338;2023-04-01T13:18:56;0.70;;;0.57;;
10880;SDS011;5493;48.884;8.338;2023-04-01T13:21:34;1.27;;;0.90;;
10880;SDS011;5493;48.884;8.338;2023-04-01T13:24:13;0.80;;;0.73;;
10880;SDS011;5493;48.884;8.338;2023-04-01T13:27:00;0.40;;;0.40;;
10880;SDS011;5493;48.884;8.338;2023-04-01T13:29:38;1.97;;;1.00;;
10880;SDS011;5493;48.884;8.338;2023-04-01T13:32:22;0.43;;;0.43;;
10880;SDS011;5493;48.884;8.338;2023-04-01T13:34:59;2.40;;;1.10;;
10880;SDS011;5493;48.884;8.338;2023-04-01T13:37:41;1.23;;;0.83;;
10880;SDS011;5493;48.884;8.338;2023-04-01T13:40:26;2.00;;;1.30;;
10880;SDS011;5493;48.884;8.338;2023-04-01T13:43:02;1.43;;;1.10;;
10880;SDS011;5493;48.884;8.338;2023-04-01T13:45:41;0.80;;;0.50;;
10880;SDS011;5493;48.884;8.338;2023-04-01T13:48:23;1.30;;;0.80;;
10880;SDS011;5493;48.884;8.338;2023-04-01T13:51:06;1.27;;;0.63;;
10880;SDS011;5493;48.884;8.338;2023-04-01T13:56:35;0.80;;;0.70;;
10880;SDS011;5493;48.884;8.338;2023-04-01T13:59:32;0.33;;;0.33;;
10880;SDS011;5493;48.884;8.338;2023-04-01T14:02:29;1.60;;;0.70;;
10880;SDS011;5493;48.884;8.338;2023-04-01T14:05:24;0.83;;;0.40;;
10880;SDS011;5493;48.884;8.338;2023-04-01T14:08:05;0.60;;;0.53;;
10880;SDS011;5493;48.884;8.338;2023-04-01T14:10:42;0.73;;;0.70;;
10880;SDS011;5493;48.884;8.338;2023-04-01T14:13:15;0.30;;;0.30;;
10880;SDS011;5493;48.884;8.338;2023-04-01T14:19:02;0.10;;;0.10;;
10880;SDS011;5493;48.884;8.338;2023-04-01T14:21:33;0.67;;;0.50;;
10880;SDS011;5493;48.884;8.338;2023-04-01T14:24:12;1.10;;;0.70;;
10880;SDS011;5493;48.884;8.338;2023-04-01T14:27:04;0.83;;;0.50;;
10880;SDS011;5493;48.884;8.338;2023-04-01T14:29:44;0.97;;;0.30;;
10880;SDS011;5493;48.884;8.338;2023-04-01T14:32:24;0.80;;;0.60;;
10880;SDS011;5493;48.884;8.338;2023-04-01T14:35:10;1.73;;;0.50;;
10880;SDS011;5493;48.884;8.338;2023-04-01T14:37:58;1.07;;;0.77;;
10880;SDS011;5493;48.884;8.338;2023-04-01T14:44:02;1.43;;;1.00;;
10880;SDS011;5493;48.884;8.338;2023-04-01T14:49:44;1.37;;;0.90;;
10880;SDS011;5493;48.884;8.338;2023-04-01T14:52:16;1.73;;;0.97;;
10880;SDS011;5493;48.884;8.338;2023-04-01T14:54:49;0.97;;;0.87;;
10880;SDS011;5493;48.884;8.338;2023-04-01T14:57:22;1.20;;;0.53;;
10880;SDS011;5493;48.884;8.338;2023-04-01T14:59:51;0.40;;;0.40;;
10880;SDS011;5493;48.884;8.338;2023-04-01T15:02:30;1.33;;;0.87;;
10880;SDS011;5493;48.884;8.338;2023-04-01T15:05:08;0.93;;;0.60;;
10880;SDS011;5493;48.884;8.338;2023-04-01T15:07:54;1.67;;;0.80;;
10880;SDS011;5493;48.884;8.338;2023-04-01T15:10:51;1.93;;;1.10;;
10880;SDS011;5493;48.884;8.338;2023-04-01T15:13:31;0.40;;;0.40;;
10880;SDS011;5493;48.884;8.338;2023-04-01T15:16:17;1.13;;;0.60;;
10880;SDS011;5493;48.884;8.338;2023-04-01T15:18:51;2.10;;;0.70;;
10880;SDS011;5493;48.884;8.338;2023-04-01T15:21:50;3.43;;;1.20;;
10880;SDS011;5493;48.884;8.338;2023-04-01T15:24:36;0.60;;;0.57;;
10880;SDS011;5493;48.884;8.338;2023-04-01T15:27:24;0.30;;;0.30;;
10880;SDS011;5493;48.884;8.338;2023-04-01T15:30:06;2.50;;;0.87;;
10880;SDS011;5493;48.884;8.338;2023-04-01T15:32:46;0.87;;;0.83;;
10880;SDS011;5493;48.884;8.338;2023-04-01T15:35:26;2.80;;;1.47;;
10880;SDS011;5493;48.884;8.338;2023-04-01T15:38:05;2.10;;;1.37;;
10880;SDS011;5493;48.884;8.338;2023-04-01T15:40:41;1.47;;;1.00;;
10880;SDS011;5493;48.884;8.338;2023-04-01T15:43:15;1.30;;;1.10;;
10880;SDS011;5493;48.884;8.338;2023-04-01T15:45:55;1.70;;;1.30;;
10880;SDS011;5493;48.884;8.338;2023-04-01T15:48:40;3.93;;;1.90;;
10880;SDS011;5493;48.884;8.338;2023-04-01T15:51:22;3.03;;;1.03;;
10880;SDS011;5493;48.884;8.338;2023-04-01T15:54:24;2.80;;;1.40;;
10880;SDS011;5493;48.884;8.338;2023-04-01T15:57:04;2.17;;;1.40;;
10880;SDS011;5493;48.884;8.338;2023-04-01T15:59:47;1.93;;;1.10;;
10880;SDS011;5493;48.884;8.338;2023-04-01T16:02:24;1.03;;;0.93;;
10880;SDS011;5493;48.884;8.338;2023-04-01T16:04:59;0.50;;;0.50;;
10880;SDS011;5493;48.884;8.338;2023-04-01T16:07:36;1.80;;;1.03;;
10880;SDS011;5493;48.884;8.338;2023-04-01T16:10:30;2.30;;;0.70;;
10880;SDS011;5493;48.884;8.338;2023-04-01T16:13:19;0.87;;;0.60;;
10880;SDS011;5493;48.884;8.338;2023-04-01T16:15:55;1.47;;;0.90;;
10880;SDS011;5493;48.884;8.338;2023-04-01T16:18:36;1.30;;;1.10;;
10880;SDS011;5493;48.884;8.338;2023-04-01T16:21:14;2.57;;;1.50;;
10880;SDS011;5493;48.884;8.338;2023-04-01T16:23:55;1.40;;;0.97;;
10880;SDS011;5493;48.884;8.338;2023-04-01T16:26:26;2.57;;;1.87;;
10880;SDS011;5493;48.884;8.338;2023-04-01T16:29:03;2.80;;;1.37;;
10880;SDS011;5493;48.884;8.338;2023-04-01T16:31:38;1.90;;;1.50;;
10880;SDS011;5493;48.884;8.338;2023-04-01T16:34:14;1.20;;;0.90;;
10880;SDS011;5493;48.884;8.338;2023-04-01T16:36:46;1.30;;;0.90;;
10880;SDS011;5493;48.884;8.338;2023-04-01T16:39:18;2.87;;;1.60;;
10880;SDS011;5493;48.884;8.338;2023-04-01T16:41:57;1.63;;;1.33;;
10880;SDS011;5493;48.884;8.338;2023-04-01T16:44:46;2.30;;;1.03;;
10880;SDS011;5493;48.884;8.338;2023-04-01T16:47:19;3.43;;;1.67;;
10880;SDS011;5493;48.884;8.338;2023-04-01T16:49:50;2.17;;;1.40;;
10880;SDS011;5493;48.884;8.338;2023-04-01T16:52:29;2.07;;;1.63;;
10880;SDS011;5493;48.884;8.338;2023-04-01T16:55:01;2.83;;;1.80;;
10880;SDS011;5493;48.884;8.338;2023-04-01T16:57:43;3.20;;;1.90;;
10880;SDS011;5493;48.884;8.338;2023-04-01T17:00:21;6.33;;;1.60;;
10880;SDS011;5493;48.884;8.338;2023-04-01T17:02:52;1.90;;;1.37;;